createdAt,value
2023-01-22T00:01:19.596Z,21.17
2023-01-22T00:03:46.918Z,19.17
2023-01-22T00:06:13.842Z,21.40
2023-01-22T00:08:40.170Z,21.00
2023-01-22T00:11:06.621Z,20.27
2023-01-22T00:13:33.005Z,21.20
2023-01-22T00:16:00.242Z,20.13
2023-01-22T00:18:26.851Z,19.67
2023-01-22T00:20:55.288Z,20.87
2023-01-22T00:23:22.219Z,21.20
2023-01-22T00:25:48.720Z,21.77
2023-01-22T00:28:16.699Z,20.50
2023-01-22T00:30:43.435Z,21.77
2023-01-22T00:33:09.828Z,20.23
2023-01-22T00:35:36.250Z,21.30
2023-01-22T00:38:03.722Z,20.70
2023-01-22T00:40:30.118Z,21.80
2023-01-22T00:42:56.733Z,20.87
2023-01-22T00:45:23.072Z,20.07
2023-01-22T00:47:49.426Z,19.67
2023-01-22T00:50:16.346Z,21.03
2023-01-22T00:52:42.944Z,21.17
2023-01-22T00:55:09.581Z,21.17
2023-01-22T00:57:35.931Z,19.93
2023-01-22T01:00:02.404Z,20.07
2023-01-22T01:02:29.932Z,21.27
2023-01-22T01:04:56.818Z,19.03
2023-01-22T01:07:23.814Z,19.97
2023-01-22T01:09:50.439Z,19.57
2023-01-22T01:12:16.852Z,20.67
2023-01-22T01:14:43.335Z,20.03
2023-01-22T01:17:09.692Z,19.77
2023-01-22T01:19:36.274Z,18.80
2023-01-22T01:22:03.178Z,19.13
2023-01-22T01:24:29.650Z,19.30
2023-01-22T01:26:56.031Z,19.33
2023-01-22T01:29:22.364Z,19.00
2023-01-22T01:31:53.076Z,19.47
2023-01-22T01:34:19.575Z,17.77
2023-01-22T01:36:49.111Z,19.77
2023-01-22T01:39:15.941Z,19.37
2023-01-22T01:41:42.329Z,19.90
2023-01-22T01:44:16.066Z,20.40
2023-01-22T01:46:53.280Z,18.43
2023-01-22T01:49:28.115Z,17.50
2023-01-22T01:51:59.738Z,20.13
2023-01-22T01:54:27.389Z,18.97
2023-01-22T01:57:01.134Z,19.50
2023-01-22T01:59:27.611Z,18.90
2023-01-22T02:01:55.665Z,17.90
2023-01-22T02:04:23.878Z,18.77
2023-01-22T02:06:50.345Z,19.03
2023-01-22T02:09:16.933Z,18.40
2023-01-22T02:11:43.444Z,19.00
2023-01-22T02:14:20.100Z,17.63
2023-01-22T02:16:46.462Z,18.57
2023-01-22T02:19:12.794Z,19.60
2023-01-22T02:21:44.439Z,18.57
2023-01-22T02:24:16.304Z,19.50
2023-01-22T02:26:45.517Z,19.07
2023-01-22T02:29:16.324Z,18.90
2023-01-22T02:31:42.894Z,17.67
2023-01-22T02:34:09.945Z,18.63
2023-01-22T02:36:37.904Z,17.00
2023-01-22T02:39:04.442Z,17.57
2023-01-22T02:41:32.172Z,17.23
2023-01-22T02:43:59.659Z,16.63
2023-01-22T02:46:26.046Z,16.77
2023-01-22T02:48:52.655Z,15.23
2023-01-22T02:51:19.359Z,17.27
2023-01-22T02:53:48.179Z,15.07
2023-01-22T02:56:14.813Z,17.30
2023-01-22T02:58:41.306Z,15.77
2023-01-22T03:01:20.293Z,16.30
2023-01-22T03:03:49.504Z,15.47
2023-01-22T03:06:16.336Z,15.50
2023-01-22T03:08:43.597Z,16.07
2023-01-22T03:11:12.935Z,14.93
2023-01-22T03:13:58.116Z,15.63
2023-01-22T03:16:43.190Z,14.77
2023-01-22T03:19:31.192Z,15.53
2023-01-22T03:21:57.640Z,16.13
2023-01-22T03:24:25.685Z,15.67
2023-01-22T03:26:52.122Z,17.17
2023-01-22T03:29:18.593Z,15.37
2023-01-22T03:31:48.309Z,15.60
2023-01-22T03:34:19.543Z,15.67
2023-01-22T03:36:46.044Z,15.23
2023-01-22T03:39:13.219Z,15.97
2023-01-22T03:41:39.810Z,14.67
2023-01-22T03:44:09.194Z,15.83
2023-01-22T03:46:36.495Z,15.73
2023-01-22T03:49:03.709Z,16.27
2023-01-22T03:51:30.589Z,16.97
2023-01-22T03:53:58.339Z,17.43
2023-01-22T03:56:26.282Z,16.43
2023-01-22T03:58:57.903Z,15.77
2023-01-22T04:01:26.773Z,14.50
2023-01-22T04:03:54.969Z,15.67
2023-01-22T04:06:24.893Z,17.20
2023-01-22T04:08:54.478Z,17.53
2023-01-22T04:11:25.276Z,16.87
2023-01-22T04:13:54.571Z,17.10
2023-01-22T04:16:21.416Z,15.67
2023-01-22T04:19:06.385Z,16.73
2023-01-22T04:21:53.555Z,16.50
2023-01-22T04:24:19.927Z,15.77
2023-01-22T04:26:47.352Z,16.23
2023-01-22T04:29:16.796Z,16.33
2023-01-22T04:31:44.245Z,16.97
2023-01-22T04:34:47.344Z,16.30
2023-01-22T04:37:20.239Z,17.17
2023-01-22T04:39:46.617Z,16.57
2023-01-22T04:42:12.986Z,16.60
2023-01-22T04:44:39.402Z,16.90
2023-01-22T04:47:07.479Z,17.37
2023-01-22T04:49:34.787Z,16.60
2023-01-22T04:52:01.419Z,17.77
2023-01-22T04:54:29.131Z,15.47
2023-01-22T04:56:55.474Z,15.60
2023-01-22T04:59:21.903Z,16.27
2023-01-22T05:01:50.836Z,16.80
2023-01-22T05:04:19.006Z,14.97
2023-01-22T05:06:46.194Z,15.60
2023-01-22T05:09:13.629Z,15.43
2023-01-22T05:11:50.931Z,15.57
2023-01-22T05:14:17.630Z,15.87
2023-01-22T05:16:46.889Z,15.87
2023-01-22T05:19:13.239Z,16.43
2023-01-22T05:21:39.619Z,14.77
2023-01-22T05:24:08.077Z,16.50
2023-01-22T05:26:34.869Z,16.23
2023-01-22T05:29:10.212Z,17.17
2023-01-22T05:31:59.964Z,15.47
2023-01-22T05:34:30.311Z,16.33
2023-01-22T05:36:56.887Z,17.00
2023-01-22T05:39:25.096Z,16.17
2023-01-22T05:41:54.271Z,15.80
2023-01-22T05:44:20.675Z,14.90
2023-01-22T05:46:51.356Z,15.93
2023-01-22T05:49:29.578Z,16.60
2023-01-22T05:51:58.288Z,15.90
2023-01-22T05:54:24.911Z,15.30
2023-01-22T05:56:51.919Z,16.97
2023-01-22T05:59:18.312Z,15.57
2023-01-22T06:01:51.513Z,15.33
2023-01-22T06:04:18.292Z,15.20
2023-01-22T06:06:44.634Z,15.57
2023-01-22T06:09:12.991Z,16.17
2023-01-22T06:11:40.074Z,15.13
2023-01-22T06:14:07.695Z,14.77
2023-01-22T06:16:34.998Z,15.70
2023-01-22T06:19:12.415Z,15.70
2023-01-22T06:21:50.518Z,15.63
2023-01-22T06:24:17.749Z,13.80
2023-01-22T06:26:44.232Z,14.97
2023-01-22T06:29:13.104Z,16.13
2023-01-22T06:31:41.103Z,15.60
2023-01-22T06:34:08.886Z,14.57
2023-01-22T06:36:35.665Z,14.47
2023-01-22T06:39:02.755Z,16.10
2023-01-22T06:41:39.547Z,14.13
2023-01-22T06:44:09.518Z,16.13
2023-01-22T06:46:36.816Z,15.53
2023-01-22T06:49:06.389Z,14.17
2023-01-22T06:51:32.874Z,14.90
2023-01-22T06:53:59.572Z,15.33
2023-01-22T06:56:27.246Z,14.23
2023-01-22T06:58:55.742Z,14.43
2023-01-22T07:01:22.245Z,14.73
2023-01-22T07:03:48.672Z,14.40
2023-01-22T07:06:18.595Z,15.30
2023-01-22T07:08:45.217Z,13.90
2023-01-22T07:11:11.825Z,13.83
2023-01-22T07:13:38.167Z,14.80
2023-01-22T07:16:05.395Z,13.70
2023-01-22T07:18:32.020Z,14.00
2023-01-22T07:21:03.504Z,15.07
2023-01-22T07:23:30.762Z,15.20
2023-01-22T07:25:57.440Z,13.07
2023-01-22T07:28:24.073Z,13.63
2023-01-22T07:30:50.659Z,14.03
2023-01-22T07:33:18.757Z,14.07
2023-01-22T07:35:53.179Z,13.93
2023-01-22T07:38:19.522Z,13.57
2023-01-22T07:40:45.878Z,13.90
2023-01-22T07:43:14.952Z,14.50
2023-01-22T07:45:41.584Z,14.67
2023-01-22T07:48:10.626Z,12.87
2023-01-22T07:50:39.932Z,13.10
2023-01-22T07:53:07.463Z,13.90
2023-01-22T07:55:33.860Z,13.77
2023-01-22T07:58:03.607Z,13.70
2023-01-22T08:00:30.552Z,13.10
2023-01-22T08:02:57.007Z,13.60
2023-01-22T08:05:23.482Z,11.10
2023-01-22T08:07:49.932Z,14.07
2023-01-22T08:10:17.070Z,13.17
2023-01-22T08:12:46.178Z,13.30
2023-01-22T08:15:13.899Z,13.30
2023-01-22T08:17:40.676Z,13.33
2023-01-22T08:20:08.293Z,13.20
2023-01-22T08:22:34.694Z,13.37
2023-01-22T08:25:01.061Z,13.10
2023-01-22T08:27:27.454Z,12.67
2023-01-22T08:29:53.783Z,13.50
2023-01-22T08:32:20.248Z,14.03
2023-01-22T08:34:46.658Z,13.43
2023-01-22T08:37:13.094Z,14.40
2023-01-22T08:39:39.460Z,12.77
2023-01-22T08:42:05.821Z,13.37
2023-01-22T08:44:32.173Z,14.10
2023-01-22T08:46:58.575Z,14.30
2023-01-22T08:49:25.143Z,14.70
2023-01-22T08:51:51.666Z,13.63
2023-01-22T08:54:18.397Z,13.03
2023-01-22T08:56:44.831Z,13.30
2023-01-22T08:59:11.213Z,14.77
2023-01-22T09:01:37.541Z,13.47
2023-01-22T09:04:09.427Z,15.87
2023-01-22T09:06:37.357Z,13.87
2023-01-22T09:09:04.141Z,14.97
2023-01-22T09:11:31.312Z,14.57
2023-01-22T09:13:58.085Z,12.87
2023-01-22T09:16:25.908Z,14.60
2023-01-22T09:18:53.218Z,15.33
2023-01-22T09:21:19.945Z,14.50
2023-01-22T09:23:46.347Z,14.90
2023-01-22T09:26:12.701Z,14.47
2023-01-22T09:28:39.053Z,14.17
2023-01-22T09:31:05.458Z,13.17
2023-01-22T09:33:31.853Z,13.60
2023-01-22T09:36:12.614Z,13.90
2023-01-22T09:38:39.299Z,13.60
2023-01-22T09:41:34.633Z,14.33
2023-01-22T09:44:09.321Z,14.23
2023-01-22T09:46:44.123Z,13.87
2023-01-22T09:49:32.145Z,13.30
2023-01-22T09:52:00.842Z,12.57
2023-01-22T09:54:29.134Z,13.70
2023-01-22T09:57:01.987Z,13.73
2023-01-22T09:59:35.968Z,14.43
2023-01-22T10:02:21.472Z,12.93
2023-01-22T10:04:52.080Z,13.03
2023-01-22T10:07:32.347Z,13.47
2023-01-22T10:10:03.622Z,12.97
2023-01-22T10:12:30.216Z,13.03
2023-01-22T10:14:56.982Z,14.00
2023-01-22T10:17:28.503Z,13.80
2023-01-22T10:19:59.567Z,13.80
2023-01-22T10:22:27.070Z,13.60
2023-01-22T10:24:53.852Z,13.07
2023-01-22T10:27:24.603Z,13.37
2023-01-22T10:30:07.400Z,14.30
2023-01-22T10:32:33.841Z,13.97
2023-01-22T10:35:20.938Z,12.50
2023-01-22T10:37:55.776Z,14.77
2023-01-22T10:40:37.763Z,13.97
2023-01-22T10:43:06.148Z,13.73
2023-01-22T10:45:32.657Z,13.37
2023-01-22T10:48:15.942Z,12.73
2023-01-22T10:50:43.899Z,13.43
2023-01-22T10:53:31.344Z,13.73
2023-01-22T10:55:59.656Z,13.63
2023-01-22T10:58:34.203Z,14.63
2023-01-22T11:01:21.646Z,14.20
2023-01-22T11:03:48.065Z,15.00
2023-01-22T11:06:22.078Z,14.77
2023-01-22T11:08:53.392Z,14.43
2023-01-22T11:11:26.117Z,14.33
2023-01-22T11:14:01.221Z,14.03
2023-01-22T11:16:31.895Z,13.70
2023-01-22T11:19:02.893Z,14.10
2023-01-22T11:21:33.735Z,13.87
2023-01-22T11:24:13.960Z,14.63
2023-01-22T11:27:04.174Z,12.80
2023-01-22T11:29:48.544Z,14.30
2023-01-22T11:32:17.794Z,14.60
2023-01-22T11:35:05.015Z,13.60
2023-01-22T11:37:49.512Z,13.90
2023-01-22T11:40:28.429Z,14.73
2023-01-22T11:43:11.752Z,13.47
2023-01-22T11:45:56.574Z,14.33
2023-01-22T11:48:47.659Z,14.80
2023-01-22T11:51:26.165Z,14.63
2023-01-22T11:54:06.160Z,14.07
2023-01-22T11:57:09.837Z,15.20
2023-01-22T12:00:15.801Z,14.63
2023-01-22T12:03:06.098Z,15.37
2023-01-22T12:05:57.916Z,14.80
2023-01-22T12:08:36.326Z,13.83
2023-01-22T12:11:11.731Z,15.30
2023-01-22T12:13:44.043Z,16.03
2023-01-22T12:16:19.485Z,15.93
2023-01-22T12:19:16.804Z,16.03
2023-01-22T12:21:54.949Z,15.57
2023-01-22T12:24:50.074Z,14.23
2023-01-22T12:27:26.768Z,14.87
2023-01-22T12:30:01.733Z,15.53
2023-01-22T12:32:30.531Z,15.73
2023-01-22T12:35:17.902Z,15.47
2023-01-22T12:38:12.429Z,15.37
2023-01-22T12:41:04.404Z,15.40
2023-01-22T12:43:42.040Z,16.53
2023-01-22T12:46:21.571Z,15.33
2023-01-22T12:49:03.205Z,16.90
2023-01-22T12:51:42.304Z,16.47
2023-01-22T12:54:09.851Z,15.13
2023-01-22T12:56:36.241Z,16.57
2023-01-22T12:59:02.687Z,16.87
2023-01-22T13:01:35.166Z,18.10
2023-01-22T13:04:06.973Z,17.73
2023-01-22T13:06:38.787Z,16.97
2023-01-22T13:09:22.415Z,17.57
2023-01-22T13:11:48.751Z,15.60
2023-01-22T13:14:21.297Z,15.03
2023-01-22T13:16:54.494Z,17.20
2023-01-22T13:19:31.474Z,15.67
2023-01-22T13:22:00.138Z,17.07
2023-01-22T13:24:26.585Z,16.13
2023-01-22T13:27:03.283Z,18.30
2023-01-22T13:29:36.692Z,16.77
2023-01-22T13:32:15.730Z,17.93
2023-01-22T13:34:42.208Z,17.83
2023-01-22T13:37:27.657Z,17.50
2023-01-22T13:39:54.040Z,15.27
2023-01-22T13:42:21.155Z,17.07
2023-01-22T13:44:50.583Z,16.67
2023-01-22T13:47:32.958Z,15.70
2023-01-22T13:49:59.904Z,17.63
2023-01-22T13:52:28.449Z,16.80
2023-01-22T13:55:01.914Z,16.63
2023-01-22T13:57:28.341Z,18.03
2023-01-22T14:00:00.315Z,17.53
2023-01-22T14:02:35.509Z,17.50
2023-01-22T14:05:02.163Z,17.73
2023-01-22T14:07:34.594Z,16.50
2023-01-22T14:10:22.545Z,16.37
2023-01-22T14:12:59.806Z,16.70
2023-01-22T14:15:26.395Z,17.03
2023-01-22T14:17:52.756Z,18.83
2023-01-22T14:20:19.671Z,15.87
2023-01-22T14:22:49.541Z,17.60
2023-01-22T14:25:16.126Z,17.07
2023-01-22T14:27:49.479Z,16.63
2023-01-22T14:30:19.011Z,16.60
2023-01-22T14:32:45.930Z,17.83
2023-01-22T14:35:26.269Z,17.43
2023-01-22T14:37:53.576Z,17.10
2023-01-22T14:40:21.996Z,17.00
2023-01-22T14:42:48.940Z,16.87
2023-01-22T14:45:17.399Z,17.50
2023-01-22T14:47:44.265Z,16.17
2023-01-22T14:50:11.417Z,17.63
2023-01-22T14:52:38.253Z,16.77
2023-01-22T14:55:05.574Z,17.53
2023-01-22T14:57:32.004Z,16.97
2023-01-22T14:59:58.348Z,17.03
2023-01-22T15:02:24.756Z,17.83
2023-01-22T15:04:51.311Z,17.47
2023-01-22T15:07:17.649Z,18.03
2023-01-22T15:09:44.050Z,18.13
2023-01-22T15:12:10.655Z,19.10
2023-01-22T15:14:37.103Z,17.60
2023-01-22T15:17:03.476Z,18.73
2023-01-22T15:19:38.954Z,18.47
2023-01-22T15:22:07.195Z,17.77
2023-01-22T15:24:33.525Z,18.30
2023-01-22T15:27:00.493Z,19.50
2023-01-22T15:29:26.938Z,18.40
2023-01-22T15:31:56.505Z,17.07
2023-01-22T15:34:23.725Z,17.10
2023-01-22T15:36:50.592Z,18.17
2023-01-22T15:39:17.137Z,18.40
2023-01-22T15:41:44.142Z,18.63
2023-01-22T15:44:12.896Z,18.33
2023-01-22T15:46:41.659Z,18.77
2023-01-22T15:49:10.144Z,17.53
2023-01-22T15:51:37.078Z,18.33
2023-01-22T15:54:05.302Z,19.20
2023-01-22T15:56:34.448Z,18.77
2023-01-22T15:59:01.335Z,17.97
2023-01-22T16:01:28.543Z,18.13
2023-01-22T16:03:55.455Z,18.90
2023-01-22T16:06:24.329Z,19.20
2023-01-22T16:08:52.614Z,17.00
2023-01-22T16:11:20.521Z,18.37
2023-01-22T16:13:47.348Z,18.83
2023-01-22T16:16:15.201Z,17.93
2023-01-22T16:18:41.868Z,18.70
2023-01-22T16:21:09.535Z,19.40
2023-01-22T16:23:38.518Z,20.33
2023-01-22T16:26:06.824Z,19.00
2023-01-22T16:28:33.146Z,19.43
2023-01-22T16:31:09.101Z,18.80
2023-01-22T16:33:38.100Z,17.90
2023-01-22T16:36:07.461Z,19.83
2023-01-22T16:38:35.039Z,18.67
2023-01-22T16:41:24.724Z,18.83
2023-01-22T16:44:06.494Z,20.67
2023-01-22T16:46:36.879Z,18.70
2023-01-22T16:49:05.755Z,21.27
2023-01-22T16:51:38.060Z,18.57
2023-01-22T16:54:06.360Z,19.53
2023-01-22T16:56:33.603Z,19.23
2023-01-22T16:59:00.235Z,19.57
2023-01-22T17:01:28.830Z,19.20
2023-01-22T17:03:55.275Z,19.13
2023-01-22T17:06:39.675Z,20.07
2023-01-22T17:09:07.620Z,18.60
2023-01-22T17:11:34.176Z,20.17
2023-01-22T17:14:00.850Z,19.13
2023-01-22T17:16:27.303Z,20.83
2023-01-22T17:18:54.784Z,19.80
2023-01-22T17:21:21.215Z,20.23
2023-01-22T17:23:47.763Z,19.07
2023-01-22T17:26:15.985Z,20.63
2023-01-22T17:28:42.909Z,19.43
2023-01-22T17:31:18.557Z,20.27
2023-01-22T17:33:45.237Z,20.97
2023-01-22T17:36:14.718Z,20.03
2023-01-22T17:38:41.113Z,19.40
2023-01-22T17:41:10.353Z,20.03
2023-01-22T17:43:38.474Z,19.93
2023-01-22T17:46:08.907Z,21.00
2023-01-22T17:48:36.862Z,19.60
2023-01-22T17:51:09.697Z,20.23
2023-01-22T17:53:38.884Z,20.27
2023-01-22T17:56:24.056Z,21.87
2023-01-22T17:58:53.883Z,20.77
2023-01-22T18:01:23.576Z,20.57
2023-01-22T18:03:50.650Z,20.73
2023-01-22T18:06:18.616Z,20.30
2023-01-22T18:08:45.186Z,20.47
2023-01-22T18:11:14.406Z,21.67
2023-01-22T18:13:41.065Z,19.87
2023-01-22T18:16:09.996Z,21.13
2023-01-22T18:18:36.651Z,20.67
2023-01-22T18:21:03.282Z,21.30
2023-01-22T18:23:29.701Z,19.40
2023-01-22T18:25:57.817Z,22.90
2023-01-22T18:28:26.521Z,23.20
2023-01-22T18:30:54.224Z,22.77
2023-01-22T18:33:21.149Z,21.73
2023-01-22T18:35:50.822Z,23.07
2023-01-22T18:38:20.574Z,23.30
2023-01-22T18:40:48.150Z,23.57
2023-01-22T18:43:14.628Z,23.17
2023-01-22T18:45:41.197Z,23.27
2023-01-22T18:48:10.904Z,25.07
2023-01-22T18:50:38.072Z,24.63
2023-01-22T18:53:05.426Z,22.60
2023-01-22T18:55:31.805Z,23.00
2023-01-22T18:58:03.592Z,24.20
2023-01-22T19:00:30.002Z,25.13
2023-01-22T19:02:57.675Z,22.47
2023-01-22T19:05:26.150Z,22.27
2023-01-22T19:07:52.998Z,25.20
2023-01-22T19:10:19.706Z,24.10
2023-01-22T19:12:46.517Z,23.93
2023-01-22T19:15:13.071Z,23.27
2023-01-22T19:17:40.013Z,22.60
2023-01-22T19:20:10.526Z,23.50
2023-01-22T19:22:38.886Z,24.60
2023-01-22T19:25:08.733Z,23.90
2023-01-22T19:27:35.452Z,24.13
2023-01-22T19:30:04.729Z,23.93
2023-01-22T19:32:34.819Z,22.73
2023-01-22T19:35:04.099Z,23.60
2023-01-22T19:37:30.549Z,25.13
2023-01-22T19:40:00.124Z,23.03
2023-01-22T19:42:26.908Z,24.57
2023-01-22T19:44:53.460Z,23.47
2023-01-22T19:47:20.050Z,24.43
2023-01-22T19:49:46.906Z,23.37
2023-01-22T19:52:13.307Z,24.77
2023-01-22T19:54:47.228Z,25.70
2023-01-22T19:57:14.948Z,23.53
2023-01-22T19:59:42.498Z,23.33
2023-01-22T20:02:13.994Z,23.80
2023-01-22T20:04:40.754Z,24.53
2023-01-22T20:07:07.324Z,24.07
2023-01-22T20:09:35.197Z,22.23
2023-01-22T20:12:02.921Z,24.80
2023-01-22T20:14:31.563Z,23.40
2023-01-22T20:17:00.148Z,25.03
2023-01-22T20:19:26.923Z,23.70
2023-01-22T20:21:53.562Z,24.43
2023-01-22T20:24:20.149Z,25.87
2023-01-22T20:26:46.839Z,25.20
2023-01-22T20:29:13.206Z,24.87
2023-01-22T20:31:39.799Z,25.10
2023-01-22T20:34:06.260Z,24.30
2023-01-22T20:36:32.699Z,23.33
2023-01-22T20:39:00.682Z,25.60
2023-01-22T20:41:27.346Z,23.63
2023-01-22T20:43:54.735Z,23.13
2023-01-22T20:46:25.695Z,23.37
2023-01-22T20:48:55.825Z,26.47
2023-01-22T20:51:25.574Z,27.00
2023-01-22T20:53:56.648Z,24.60
2023-01-22T20:56:27.209Z,25.33
2023-01-22T20:58:58.723Z,24.23
2023-01-22T21:01:25.879Z,25.67
2023-01-22T21:03:52.820Z,24.57
2023-01-22T21:06:19.896Z,25.50
2023-01-22T21:08:51.853Z,23.17
2023-01-22T21:11:20.521Z,24.37
2023-01-22T21:13:48.754Z,26.00
2023-01-22T21:16:18.542Z,25.57
2023-01-22T21:18:46.292Z,24.63
2023-01-22T21:21:18.842Z,24.00
2023-01-22T21:23:47.897Z,24.30
2023-01-22T21:26:16.168Z,25.27
2023-01-22T21:28:42.546Z,23.47
2023-01-22T21:31:12.115Z,24.80
2023-01-22T21:33:39.166Z,24.90
2023-01-22T21:36:07.508Z,23.97
2023-01-22T21:38:34.210Z,25.27
2023-01-22T21:41:10.321Z,23.93
2023-01-22T21:43:55.072Z,23.10
2023-01-22T21:46:27.187Z,24.47
2023-01-22T21:48:58.046Z,22.87
2023-01-22T21:51:25.556Z,23.17
2023-01-22T21:53:56.594Z,22.53
2023-01-22T21:56:23.874Z,24.10
2023-01-22T21:58:50.684Z,23.20
2023-01-22T22:01:20.529Z,22.60
2023-01-22T22:03:47.271Z,21.43
2023-01-22T22:06:14.267Z,23.17
2023-01-22T22:08:43.380Z,21.97
2023-01-22T22:11:12.295Z,23.90
2023-01-22T22:13:38.860Z,21.43
2023-01-22T22:16:07.278Z,21.77
2023-01-22T22:18:34.037Z,22.20
2023-01-22T22:21:03.555Z,21.70
2023-01-22T22:23:30.660Z,22.77
2023-01-22T22:25:57.690Z,23.37
2023-01-22T22:28:24.698Z,20.80
2023-01-22T22:30:51.225Z,20.53
2023-01-22T22:33:17.937Z,23.00
2023-01-22T22:35:46.340Z,21.33
2023-01-22T22:38:14.328Z,19.90
2023-01-22T22:40:40.776Z,20.33
2023-01-22T22:43:07.246Z,20.87
2023-01-22T22:45:37.758Z,21.93
2023-01-22T22:48:05.196Z,22.17
2023-01-22T22:50:31.646Z,21.30
2023-01-22T22:52:58.029Z,19.33
2023-01-22T22:55:26.510Z,21.10
2023-01-22T22:57:52.835Z,21.13
2023-01-22T23:00:19.666Z,20.63
2023-01-22T23:02:46.193Z,18.97
2023-01-22T23:05:12.536Z,18.73
2023-01-22T23:07:38.908Z,20.70
2023-01-22T23:10:05.699Z,19.10
2023-01-22T23:12:32.047Z,18.90
2023-01-22T23:14:58.391Z,19.63
2023-01-22T23:17:24.798Z,19.43
2023-01-22T23:19:51.251Z,20.60
2023-01-22T23:22:22.293Z,19.27
2023-01-22T23:24:48.620Z,19.00
2023-01-22T23:27:14.942Z,18.87
2023-01-22T23:29:41.266Z,19.13
2023-01-22T23:32:07.571Z,20.27
2023-01-22T23:34:34.072Z,19.67
2023-01-22T23:37:00.451Z,18.50
2023-01-22T23:39:26.810Z,18.03
2023-01-22T23:41:53.197Z,19.07
2023-01-22T23:44:19.584Z,18.33
2023-01-22T23:46:46.093Z,17.60
2023-01-22T23:49:12.675Z,17.10
2023-01-22T23:51:41.951Z,17.70
2023-01-22T23:54:08.803Z,19.17
2023-01-22T23:56:36.454Z,17.47
2023-01-22T23:59:03.716Z,18.57
